Simms, Louisiana
Current Conditions -  °F | °C
As of 7:53 PM on Wednesday 17 Dec 2014 (Local Time) from KESF Reporting Station
Clear Clear  
Wind Chill: 44°   Ceiling: Unl
Heat Index: 46°   Visibility: 10mi
Dew Point: 41°   Wind: 5mph
Humidity: 83%   Direction: 90°E
Pressure: 30.17"   Gusts: NA
Location:  31.538°N, 92.3799°W
Report Text: KESF 180153Z AUTO 09004KT 10SM CLR 08/05 A3017 RMK AO2 SLP216 T00780050
Loading
Personal Weather Stations






























Interactive Weather Map New forecast layout! Learn more

10-Day Weather Forecast

Advertisements
Track Severe Weather on mobile